createdAt,value
2023-01-19T00:01:43.409Z,40843.44
2023-01-19T00:04:11.024Z,40927.22
2023-01-19T00:06:38.731Z,40841.44
2023-01-19T00:09:06.158Z,40763.66
2023-01-19T00:11:34.471Z,40751.69
2023-01-19T00:14:01.730Z,40626.00
2023-01-19T00:16:29.108Z,40620.03
2023-01-19T00:18:56.478Z,40528.28
2023-01-19T00:21:24.623Z,40498.34
2023-01-19T00:23:52.803Z,40398.63
2023-01-19T00:26:22.013Z,40416.56
2023-01-19T00:28:50.348Z,40392.63
2023-01-19T00:31:20.552Z,40336.78
2023-01-19T00:33:52.714Z,40276.97
2023-01-19T00:36:21.281Z,40249.03
2023-01-19T00:38:48.445Z,40183.22
2023-01-19T00:41:16.394Z,40117.41
2023-01-19T00:43:43.813Z,40163.28
2023-01-19T00:46:11.144Z,40073.53
2023-01-19T00:48:38.458Z,40099.44
2023-01-19T00:51:05.808Z,40015.69
2023-01-19T00:53:35.309Z,39985.78
2023-01-19T00:56:05.830Z,39975.81
2023-01-19T00:58:33.387Z,39949.88
2023-01-19T01:01:03.685Z,39872.09
2023-01-19T01:03:31.056Z,39902.00
2023-01-19T01:05:58.879Z,39860.13
2023-01-19T01:08:26.213Z,39854.16
2023-01-19T01:10:55.114Z,39830.22
2023-01-19T01:13:26.192Z,39836.19
2023-01-19T01:15:59.728Z,39790.34
2023-01-19T01:18:29.680Z,39792.31
2023-01-19T01:21:04.995Z,39752.44
2023-01-19T01:23:32.883Z,39720.53
2023-01-19T01:26:00.125Z,39700.59
2023-01-19T01:28:27.576Z,39720.53
2023-01-19T01:30:57.103Z,39706.56
2023-01-19T01:33:40.953Z,39726.50
2023-01-19T01:36:11.759Z,39720.53
2023-01-19T01:38:41.077Z,39680.66
2023-01-19T01:41:09.056Z,39672.69
2023-01-19T01:43:45.633Z,39646.75
2023-01-19T01:46:15.581Z,39654.72
2023-01-19T01:48:57.193Z,39600.88
2023-01-19T01:51:30.905Z,39561.00
2023-01-19T01:54:10.316Z,39547.03
2023-01-19T01:56:44.358Z,39507.16
2023-01-19T01:59:26.260Z,39515.13
2023-01-19T02:02:15.889Z,39515.13
2023-01-19T02:05:11.216Z,39529.09
2023-01-19T02:08:13.416Z,39527.09
2023-01-19T02:11:01.153Z,39545.06
2023-01-19T02:13:30.761Z,39513.16
2023-01-19T02:16:01.325Z,39543.06
2023-01-19T02:18:32.946Z,39531.09
2023-01-19T02:21:21.434Z,39527.09
2023-01-19T02:23:50.443Z,39489.22
2023-01-19T02:26:42.727Z,39521.13
2023-01-19T02:29:15.737Z,39527.09
2023-01-19T02:31:43.315Z,39495.19
2023-01-19T02:34:15.247Z,39483.25
2023-01-19T02:36:56.431Z,39489.22
2023-01-19T02:40:08.472Z,39491.22
2023-01-19T02:42:52.150Z,39457.31
2023-01-19T02:45:24.582Z,39495.19
2023-01-19T02:47:52.950Z,39503.19
2023-01-19T02:50:29.660Z,39471.28
2023-01-19T02:53:09.573Z,39487.22
2023-01-19T02:55:39.380Z,39491.22
2023-01-19T02:58:27.800Z,39495.19
2023-01-19T03:01:01.320Z,39471.28
2023-01-19T03:03:49.262Z,39487.22
2023-01-19T03:06:43.485Z,39493.22
2023-01-19T03:09:16.155Z,39485.22
2023-01-19T03:11:53.236Z,39443.34
2023-01-19T03:14:24.510Z,39489.22
2023-01-19T03:16:57.271Z,39453.31
2023-01-19T03:19:34.110Z,39509.16
2023-01-19T03:22:07.343Z,39475.25
2023-01-19T03:24:39.499Z,39471.28
2023-01-19T03:27:17.891Z,39483.25
2023-01-19T03:29:50.956Z,39487.22
2023-01-19T03:32:22.225Z,39499.19
2023-01-19T03:34:56.526Z,39477.25
2023-01-19T03:37:26.090Z,39499.19
2023-01-19T03:39:53.187Z,39511.16
2023-01-19T03:42:20.950Z,39519.13
2023-01-19T03:44:51.314Z,39521.13
2023-01-19T03:47:20.178Z,39513.16
2023-01-19T03:49:49.647Z,39561.00
2023-01-19T03:52:16.915Z,39539.06
2023-01-19T03:54:46.816Z,39553.03
2023-01-19T03:57:14.266Z,39563.00
2023-01-19T03:59:43.653Z,39596.91
2023-01-19T04:02:10.977Z,39572.97
2023-01-19T04:04:38.320Z,39594.91
2023-01-19T04:07:05.489Z,39578.94
2023-01-19T04:09:34.860Z,39561.00
2023-01-19T04:12:02.254Z,39588.91
2023-01-19T04:14:29.589Z,39610.84
2023-01-19T04:16:56.846Z,39578.94
2023-01-19T04:19:24.689Z,39598.91
2023-01-19T04:21:51.927Z,39594.91
2023-01-19T04:24:22.032Z,39620.81
2023-01-19T04:26:53.451Z,39626.81
2023-01-19T04:29:21.990Z,39618.84
2023-01-19T04:31:49.199Z,39604.88
2023-01-19T04:34:16.560Z,39606.88
2023-01-19T04:36:46.635Z,39614.84
2023-01-19T04:39:16.390Z,39594.91
2023-01-19T04:41:43.891Z,39592.91
2023-01-19T04:44:11.274Z,39521.13
2023-01-19T04:46:38.377Z,39503.19
2023-01-19T04:49:05.909Z,39547.03
2023-01-19T04:51:35.549Z,39519.13
2023-01-19T04:54:04.097Z,39539.06
2023-01-19T04:56:31.266Z,39517.13
2023-01-19T04:58:58.482Z,39574.97
2023-01-19T05:01:25.987Z,39555.03
2023-01-19T05:03:59.181Z,39567.00
2023-01-19T05:06:26.617Z,39594.91
2023-01-19T05:08:53.819Z,39600.88
2023-01-19T05:11:21.471Z,39590.91
2023-01-19T05:13:53.003Z,39584.94
2023-01-19T05:16:20.140Z,39568.97
2023-01-19T05:18:50.071Z,39634.78
2023-01-19T05:21:17.259Z,39632.78
2023-01-19T05:23:47.033Z,39638.78
2023-01-19T05:26:14.432Z,39714.56
2023-01-19T05:28:44.148Z,40053.56
2023-01-19T05:31:13.799Z,40101.44
2023-01-19T05:33:41.282Z,40029.66
2023-01-19T05:36:12.027Z,39906.00
2023-01-19T05:38:39.172Z,39780.34
2023-01-19T05:41:08.874Z,39626.81
2023-01-19T05:43:36.008Z,39570.97
2023-01-19T05:46:06.888Z,39537.06
2023-01-19T05:48:34.532Z,39533.09
2023-01-19T05:51:01.957Z,39539.06
2023-01-19T05:53:31.496Z,39567.00
2023-01-19T05:56:06.121Z,39539.06
2023-01-19T05:58:39.455Z,39578.94
2023-01-19T06:01:10.719Z,39710.56
2023-01-19T06:03:39.564Z,39933.91
2023-01-19T06:06:07.204Z,40157.28
2023-01-19T06:08:34.523Z,40268.97
2023-01-19T06:11:05.718Z,40424.56
2023-01-19T06:13:35.379Z,40332.81
2023-01-19T06:16:03.373Z,40438.50
2023-01-19T06:18:30.664Z,40464.44
2023-01-19T06:21:03.313Z,40406.59
2023-01-19T06:23:33.078Z,40296.91
2023-01-19T06:26:00.992Z,40272.97
2023-01-19T06:28:28.579Z,40191.19
2023-01-19T06:30:56.764Z,40141.34
2023-01-19T06:33:27.819Z,40073.53
2023-01-19T06:35:57.925Z,40053.56
2023-01-19T06:38:26.063Z,39987.75
2023-01-19T06:41:00.041Z,39979.78
2023-01-19T06:43:27.238Z,39935.91
2023-01-19T06:45:54.827Z,39874.09
2023-01-19T06:48:22.355Z,39850.16
2023-01-19T06:50:50.425Z,39822.25
2023-01-19T06:53:22.446Z,39746.47
2023-01-19T06:55:54.271Z,39782.34
2023-01-19T06:58:24.038Z,39764.41
2023-01-19T07:00:54.111Z,39782.34
2023-01-19T07:03:23.822Z,39760.41
2023-01-19T07:05:52.694Z,39780.34
2023-01-19T07:08:20.656Z,39826.22
2023-01-19T07:11:25.006Z,39911.97
2023-01-19T07:13:39.384Z,39993.75
2023-01-19T07:16:09.049Z,40081.50
2023-01-19T07:18:37.811Z,40085.50
2023-01-19T07:21:05.974Z,40195.19
2023-01-19T07:23:34.013Z,40594.09
2023-01-19T07:26:01.958Z,42591.38
2023-01-19T07:28:31.043Z,54339.59
2023-01-19T07:30:58.519Z,56647.66
2023-01-19T07:33:26.279Z,60754.75
2023-01-19T07:35:53.742Z,63067.16
2023-01-19T07:38:21.101Z,64352.53
2023-01-19T07:40:49.509Z,64609.66
2023-01-19T07:43:19.750Z,64866.81
2023-01-19T07:45:47.122Z,63581.25
2023-01-19T07:48:14.579Z,62810.16
2023-01-19T07:50:44.827Z,62039.22
2023-01-19T07:53:12.262Z,60754.75
2023-01-19T07:55:40.128Z,58443.91
2023-01-19T07:58:07.794Z,55878.13
2023-01-19T08:00:36.686Z,52915.88
2023-01-19T08:03:05.256Z,50792.44
2023-01-19T08:05:35.589Z,49916.22
2023-01-19T08:08:03.912Z,49282.22
2023-01-19T08:10:31.262Z,47954.59
2023-01-19T08:12:59.366Z,47125.06
2023-01-19T08:15:26.903Z,45270.91
2023-01-19T08:17:56.709Z,44324.25
2023-01-19T08:20:24.912Z,43623.41
2023-01-19T08:23:00.305Z,43050.47
2023-01-19T08:25:39.707Z,42425.72
2023-01-19T08:28:07.947Z,42112.41
2023-01-19T08:30:36.019Z,41866.94
2023-01-19T08:33:08.187Z,41669.41
2023-01-19T08:35:45.795Z,41314.25
2023-01-19T08:38:13.003Z,41036.94
2023-01-19T08:40:42.031Z,40855.41
2023-01-19T08:43:11.945Z,40667.91
2023-01-19T08:45:46.455Z,40584.13
2023-01-19T08:48:22.360Z,40544.22
2023-01-19T08:50:51.409Z,40492.38
2023-01-19T08:53:21.124Z,40370.69
2023-01-19T08:55:51.058Z,40318.84
2023-01-19T08:58:20.385Z,40249.03
2023-01-19T09:00:48.913Z,40282.94
2023-01-19T09:03:19.679Z,40201.16
2023-01-19T09:05:47.073Z,40219.13
2023-01-19T09:08:17.377Z,40169.25
2023-01-19T09:10:51.487Z,40095.47
2023-01-19T09:13:19.684Z,40121.38
2023-01-19T09:15:47.008Z,40101.44
2023-01-19T09:18:17.323Z,40069.53
2023-01-19T09:20:47.065Z,40047.59
2023-01-19T09:23:17.207Z,40015.69
2023-01-19T09:25:47.149Z,40041.63
2023-01-19T09:28:17.889Z,40069.53
2023-01-19T09:30:45.384Z,40057.56
2023-01-19T09:33:16.368Z,40039.63
2023-01-19T09:35:46.070Z,40077.50
2023-01-19T09:38:16.117Z,40059.56
2023-01-19T09:40:50.249Z,40165.25
2023-01-19T09:43:38.777Z,40125.38
2023-01-19T09:46:14.296Z,40081.50
2023-01-19T09:48:47.719Z,40065.53
2023-01-19T09:51:20.838Z,40059.56
2023-01-19T09:54:13.474Z,40053.56
2023-01-19T09:56:40.876Z,40055.56
2023-01-19T09:59:38.678Z,39991.75
2023-01-19T10:02:48.159Z,40047.59
2023-01-19T10:05:24.653Z,39987.75
2023-01-19T10:08:15.312Z,40001.72
2023-01-19T10:10:51.119Z,40005.72
2023-01-19T10:13:30.786Z,39957.84
2023-01-19T10:16:23.082Z,39993.75
2023-01-19T10:18:57.504Z,40059.56
2023-01-19T10:21:34.306Z,40065.53
2023-01-19T10:24:01.534Z,40135.34
2023-01-19T10:26:42.924Z,40125.38
2023-01-19T10:29:30.381Z,40125.38
2023-01-19T10:32:08.856Z,40117.41
2023-01-19T10:34:41.630Z,40107.44
2023-01-19T10:37:31.412Z,40079.50
2023-01-19T10:40:11.179Z,40073.53
2023-01-19T10:42:43.491Z,40067.53
2023-01-19T10:45:30.270Z,40133.34
2023-01-19T10:48:07.069Z,40161.28
2023-01-19T10:50:37.487Z,39933.91
2023-01-19T10:53:30.578Z,40073.53
2023-01-19T10:56:39.239Z,40057.56
2023-01-19T10:59:32.936Z,39963.84
2023-01-19T11:02:20.145Z,39848.16
2023-01-19T11:04:53.077Z,39806.28
2023-01-19T11:07:22.423Z,39794.31
2023-01-19T11:10:10.965Z,39764.41
2023-01-19T11:12:43.248Z,39756.44
2023-01-19T11:15:26.644Z,39734.50
2023-01-19T11:17:54.667Z,39706.56
2023-01-19T11:20:35.620Z,39744.47
2023-01-19T11:23:19.035Z,39712.56
2023-01-19T11:25:52.107Z,39650.75
2023-01-19T11:28:24.696Z,39702.59
2023-01-19T11:30:58.101Z,39702.59
2023-01-19T11:33:37.818Z,39668.69
2023-01-19T11:36:27.166Z,39680.66
2023-01-19T11:38:59.666Z,39674.66
2023-01-19T11:41:28.660Z,39668.69
2023-01-19T11:44:10.875Z,39652.72
2023-01-19T11:46:41.042Z,39668.69
2023-01-19T11:49:22.063Z,39666.69
2023-01-19T11:51:53.783Z,39714.56
2023-01-19T11:54:29.944Z,39766.41
2023-01-19T11:57:00.222Z,39840.19
2023-01-19T11:59:28.392Z,39826.22
2023-01-19T12:02:00.307Z,39862.13
2023-01-19T12:04:39.505Z,39888.06
2023-01-19T12:07:10.643Z,39915.97
2023-01-19T12:09:47.811Z,39900.00
2023-01-19T12:12:38.347Z,39892.03
2023-01-19T12:15:08.991Z,39896.03
2023-01-19T12:17:44.684Z,39910.00
2023-01-19T12:20:27.096Z,39892.03
2023-01-19T12:23:02.825Z,39888.06
2023-01-19T12:25:43.203Z,39904.00
2023-01-19T12:28:19.282Z,39913.97
2023-01-19T12:30:52.186Z,39878.06
2023-01-19T12:33:27.915Z,39919.97
2023-01-19T12:36:09.756Z,39917.97
2023-01-19T12:38:45.767Z,39937.91
2023-01-19T12:41:27.368Z,39910.00
2023-01-19T12:44:19.037Z,39923.94
2023-01-19T12:46:57.303Z,39906.00
2023-01-19T12:49:38.849Z,40003.72
2023-01-19T12:52:23.074Z,40147.31
2023-01-19T12:55:13.003Z,40360.72
2023-01-19T12:58:03.672Z,40618.03
2023-01-19T13:00:34.338Z,40937.19
2023-01-19T13:03:27.489Z,41302.28
2023-01-19T13:05:57.373Z,40965.13
2023-01-19T13:08:49.093Z,40161.28
2023-01-19T13:11:19.531Z,39987.75
2023-01-19T13:13:48.088Z,40165.25
2023-01-19T13:16:18.505Z,40356.75
2023-01-19T13:18:58.889Z,40634.00
2023-01-19T13:21:34.006Z,41001.03
2023-01-19T13:24:06.898Z,40777.63
2023-01-19T13:26:38.515Z,40406.59
2023-01-19T13:29:07.599Z,40440.50
2023-01-19T13:31:37.584Z,40340.78
2023-01-19T13:34:11.814Z,40221.09
2023-01-19T13:36:45.328Z,40193.19
2023-01-19T13:39:18.715Z,40089.47
2023-01-19T13:41:47.415Z,40099.44
2023-01-19T13:44:28.040Z,40077.50
2023-01-19T13:46:57.482Z,40157.28
2023-01-19T13:49:33.421Z,40225.09
2023-01-19T13:52:19.691Z,40015.69
2023-01-19T13:54:51.277Z,39937.91
2023-01-19T13:57:26.473Z,39919.97
2023-01-19T14:00:14.562Z,39896.03
2023-01-19T14:03:23.452Z,39838.19
2023-01-19T14:05:52.916Z,39820.25
2023-01-19T14:08:25.682Z,39874.09
2023-01-19T14:11:00.040Z,39872.09
2023-01-19T14:13:33.090Z,39921.94
2023-01-19T14:16:09.104Z,40159.28
2023-01-19T14:18:36.615Z,40342.78
2023-01-19T14:21:09.784Z,40498.34
2023-01-19T14:23:40.056Z,40683.84
2023-01-19T14:26:46.669Z,40919.25
2023-01-19T14:29:34.784Z,41471.88
2023-01-19T14:32:06.353Z,41950.75
2023-01-19T14:34:33.883Z,41384.09
2023-01-19T14:37:03.844Z,39802.28
2023-01-19T14:39:36.757Z,39921.94
2023-01-19T14:42:07.189Z,39902.00
2023-01-19T14:44:39.335Z,39846.16
2023-01-19T14:47:20.360Z,39754.44
2023-01-19T14:49:47.960Z,39670.69
2023-01-19T14:52:34.099Z,39638.78
2023-01-19T14:55:06.638Z,39622.81
2023-01-19T14:57:36.659Z,39632.78
2023-01-19T15:00:17.342Z,39788.34
2023-01-19T15:02:48.239Z,39828.22
2023-01-19T15:05:16.116Z,39802.28
2023-01-19T15:07:46.302Z,39826.22
2023-01-19T15:10:24.944Z,39906.00
2023-01-19T15:12:54.036Z,39973.81
2023-01-19T15:15:34.564Z,39989.75
2023-01-19T15:18:06.665Z,40011.69
2023-01-19T15:20:35.085Z,40101.44
2023-01-19T15:23:02.347Z,40127.38
2023-01-19T15:25:31.516Z,40071.53
2023-01-19T15:27:59.574Z,40043.59
2023-01-19T15:30:30.828Z,40077.50
2023-01-19T15:32:59.117Z,39995.75
2023-01-19T15:35:26.553Z,39734.50
2023-01-19T15:37:54.384Z,39734.50
2023-01-19T15:40:23.183Z,39836.19
2023-01-19T15:42:50.797Z,39868.09
2023-01-19T15:45:37.758Z,39854.16
2023-01-19T15:48:10.487Z,39888.06
2023-01-19T15:50:43.838Z,39890.03
2023-01-19T15:53:19.781Z,39904.00
2023-01-19T15:55:56.936Z,39993.75
2023-01-19T15:58:24.748Z,40025.66
2023-01-19T16:00:57.527Z,40021.66
2023-01-19T16:03:25.921Z,40145.31
2023-01-19T16:05:53.181Z,40282.94
2023-01-19T16:08:23.134Z,40386.66
2023-01-19T16:10:56.917Z,40486.38
2023-01-19T16:13:25.110Z,40556.19
2023-01-19T16:15:52.454Z,40544.22
2023-01-19T16:18:22.090Z,40538.25
2023-01-19T16:20:52.619Z,40574.16
2023-01-19T16:23:19.793Z,40807.53
2023-01-19T16:26:36.866Z,40813.53
2023-01-19T16:29:32.180Z,40981.09
2023-01-19T16:32:03.192Z,41226.47
2023-01-19T16:34:31.159Z,41649.47
2023-01-19T16:36:58.316Z,41934.81
2023-01-19T16:39:25.738Z,42375.84
2023-01-19T16:41:53.047Z,42930.69
2023-01-19T16:44:20.519Z,43286.00
2023-01-19T16:46:49.909Z,43300.00
2023-01-19T16:49:18.568Z,43513.59
2023-01-19T16:51:48.866Z,43721.25
2023-01-19T16:54:19.540Z,43713.25
2023-01-19T16:56:49.935Z,43986.78
2023-01-19T16:59:17.649Z,44168.50
2023-01-19T17:01:45.898Z,44174.47
2023-01-19T17:04:14.431Z,44248.38
2023-01-19T17:06:41.741Z,44146.53
2023-01-19T17:09:09.491Z,44054.69
2023-01-19T17:11:37.778Z,43791.13
2023-01-19T17:14:08.581Z,43713.25
2023-01-19T17:16:36.499Z,43431.75
2023-01-19T17:19:06.450Z,42974.59
2023-01-19T17:21:35.210Z,42986.59
2023-01-19T17:24:02.459Z,42836.88
2023-01-19T17:26:31.164Z,42771.00
2023-01-19T17:29:03.088Z,42611.34
2023-01-19T17:31:32.047Z,42515.53
2023-01-19T17:34:00.455Z,42623.31
2023-01-19T17:36:29.355Z,42419.75
2023-01-19T17:38:58.758Z,42343.91
2023-01-19T17:41:28.907Z,42264.06
2023-01-19T17:43:57.168Z,42108.41
2023-01-19T17:46:26.687Z,42058.53
2023-01-19T17:49:01.922Z,41910.84
2023-01-19T17:51:32.026Z,41715.31
2023-01-19T17:53:59.951Z,41609.56
2023-01-19T17:56:36.656Z,41370.13
2023-01-19T17:59:06.523Z,41146.66
2023-01-19T18:01:34.787Z,41118.75
2023-01-19T18:04:05.080Z,41136.69
2023-01-19T18:06:32.494Z,41138.69
2023-01-19T18:09:00.126Z,40622.03
2023-01-19T18:11:30.279Z,40572.16
2023-01-19T18:14:00.749Z,40789.59
2023-01-19T18:16:29.744Z,40983.09
2023-01-19T18:18:57.556Z,41322.25
2023-01-19T18:21:28.167Z,42044.56
2023-01-19T18:24:04.891Z,42579.41
2023-01-19T18:26:34.404Z,42874.81
2023-01-19T18:29:02.315Z,43417.78
2023-01-19T18:31:30.227Z,43912.91
2023-01-19T18:33:57.679Z,44148.53
2023-01-19T18:36:24.871Z,44773.59
2023-01-19T18:38:53.667Z,45147.06
2023-01-19T18:41:24.396Z,45942.13
2023-01-19T18:43:55.150Z,46623.47
2023-01-19T18:46:22.667Z,47033.13
2023-01-19T18:48:52.150Z,47622.75
2023-01-19T18:51:22.312Z,48280.44
2023-01-19T18:53:49.958Z,48256.44
2023-01-19T18:56:17.226Z,48090.53
2023-01-19T18:58:44.866Z,49436.22
2023-01-19T19:01:21.328Z,50420.31
2023-01-19T19:03:49.617Z,51020.53
2023-01-19T19:06:20.875Z,51945.06
2023-01-19T19:08:51.897Z,52509.50
2023-01-19T19:11:20.683Z,52745.72
2023-01-19T19:14:01.442Z,56391.13
2023-01-19T19:16:29.655Z,61268.47
2023-01-19T19:18:59.492Z,64095.41
2023-01-19T19:21:29.341Z,63324.19
2023-01-19T19:23:58.627Z,63581.25
2023-01-19T19:26:28.135Z,65381.16
2023-01-19T19:29:00.563Z,65638.38
2023-01-19T19:31:30.743Z,66924.69
2023-01-19T19:34:00.251Z,67696.72
2023-01-19T19:36:28.574Z,68211.50
2023-01-19T19:38:55.838Z,68468.91
2023-01-19T19:41:26.963Z,68211.50
2023-01-19T19:43:55.386Z,68468.91
2023-01-19T19:46:24.605Z,68468.91
2023-01-19T19:48:55.648Z,69241.31
2023-01-19T19:51:27.845Z,69498.81
2023-01-19T19:53:57.372Z,69756.31
2023-01-19T19:56:31.473Z,70013.84
2023-01-19T19:59:00.144Z,71044.19
2023-01-19T20:01:32.875Z,70013.84
2023-01-19T20:04:09.362Z,70271.41
2023-01-19T20:06:44.378Z,71044.19
2023-01-19T20:09:13.927Z,71559.47
2023-01-19T20:11:46.668Z,71559.47
2023-01-19T20:14:16.151Z,71559.47
2023-01-19T20:16:43.970Z,71817.16
2023-01-19T20:19:13.391Z,71817.16
2023-01-19T20:21:44.504Z,71817.16
2023-01-19T20:24:15.857Z,71817.16
2023-01-19T20:26:50.343Z,71817.16
2023-01-19T20:29:20.962Z,70528.97
2023-01-19T20:31:55.315Z,69498.81
2023-01-19T20:34:26.364Z,70528.97
2023-01-19T20:36:54.073Z,70786.59
2023-01-19T20:39:24.782Z,71044.19
2023-01-19T20:41:54.878Z,71044.19
2023-01-19T20:44:24.694Z,71559.47
2023-01-19T20:46:55.163Z,72074.84
2023-01-19T20:49:22.847Z,72074.84
2023-01-19T20:51:51.960Z,72332.56
2023-01-19T20:54:22.052Z,72332.56
2023-01-19T20:56:49.596Z,72332.56
2023-01-19T20:59:17.537Z,72332.56
2023-01-19T21:01:45.403Z,72590.28
2023-01-19T21:04:17.104Z,72848.03
2023-01-19T21:06:44.807Z,72590.28
2023-01-19T21:09:18.450Z,72848.03
2023-01-19T21:11:45.884Z,73363.59
2023-01-19T21:14:15.410Z,73621.41
2023-01-19T21:16:42.762Z,73621.41
2023-01-19T21:19:10.406Z,73363.59
2023-01-19T21:21:40.113Z,73363.59
2023-01-19T21:24:07.568Z,73363.59
2023-01-19T21:26:39.331Z,73621.41
2023-01-19T21:29:13.293Z,73621.41
2023-01-19T21:31:41.787Z,73363.59
2023-01-19T21:34:12.315Z,73105.81
2023-01-19T21:36:44.547Z,73105.81
2023-01-19T21:39:23.968Z,72848.03
2023-01-19T21:41:51.377Z,73105.81
2023-01-19T21:44:18.711Z,72848.03
2023-01-19T21:46:47.272Z,73105.81
2023-01-19T21:49:20.159Z,73105.81
2023-01-19T21:51:50.708Z,73105.81
2023-01-19T21:54:18.622Z,73621.41
2023-01-19T21:56:46.073Z,73621.41
2023-01-19T21:59:15.139Z,73363.59
2023-01-19T22:01:45.403Z,73363.59
2023-01-19T22:04:12.701Z,73879.22
2023-01-19T22:06:42.507Z,73879.22
2023-01-19T22:09:10.208Z,73879.22
2023-01-19T22:11:41.099Z,74137.09
2023-01-19T22:14:08.690Z,73105.81
2023-01-19T22:16:38.815Z,73879.22
2023-01-19T22:19:08.177Z,73879.22
2023-01-19T22:21:35.997Z,73621.41
2023-01-19T22:24:07.486Z,73621.41
2023-01-19T22:26:34.900Z,73621.41
2023-01-19T22:29:05.977Z,73879.22
2023-01-19T22:31:35.708Z,73363.59
2023-01-19T22:34:03.367Z,73621.41
2023-01-19T22:36:34.010Z,73105.81
2023-01-19T22:39:07.243Z,73621.41
2023-01-19T22:41:40.575Z,73879.22
2023-01-19T22:44:12.821Z,73879.22
2023-01-19T22:46:42.363Z,74137.09
2023-01-19T22:49:12.316Z,73879.22
2023-01-19T22:51:39.533Z,73879.22
2023-01-19T22:54:10.201Z,73879.22
2023-01-19T22:56:38.976Z,74137.09
2023-01-19T22:59:13.097Z,74137.09
2023-01-19T23:01:46.970Z,74137.09
2023-01-19T23:04:15.778Z,74910.75
2023-01-19T23:06:50.265Z,74910.75
2023-01-19T23:09:18.574Z,74910.75
2023-01-19T23:11:50.684Z,74910.75
2023-01-19T23:14:21.601Z,74910.75
2023-01-19T23:16:49.092Z,75168.66
2023-01-19T23:19:17.322Z,75168.66
2023-01-19T23:21:45.356Z,75168.66
2023-01-19T23:24:14.974Z,74910.75
2023-01-19T23:26:42.272Z,74652.84
2023-01-19T23:29:14.790Z,74394.94
2023-01-19T23:31:48.179Z,74394.94
2023-01-19T23:34:15.721Z,74137.09
2023-01-19T23:36:43.399Z,74394.94
2023-01-19T23:39:16.060Z,73621.41
2023-01-19T23:41:45.402Z,73621.41
2023-01-19T23:44:13.547Z,73621.41
2023-01-19T23:46:41.056Z,73621.41
2023-01-19T23:49:10.397Z,73363.59
2023-01-19T23:51:42.120Z,73879.22
2023-01-19T23:54:09.502Z,73879.22
2023-01-19T23:56:42.615Z,73879.22
2023-01-19T23:59:12.853Z,74137.09
